Time,TemperatureF,DewpointF,PressureIn,WindDirection,WindDirectionDegrees,WindSpeedMPH,WindSpeedGustMPH,Humidity,HourlyPrecipIn,Conditions,Clouds,dailyrainin,SoftwareType,DateUTC
2013-09-13 00:25:00,71.0,71.0,29.72,NE,40,0.0,0.0,100,0.00,,,0.18,,2013-09-13 04:25:00,
2013-09-13 00:54:00,71.0,71.0,29.72,WSW,245,0.0,0.0,100,0.01,,,0.20,,2013-09-13 04:54:00,
2013-09-13 01:13:00,71.0,71.0,29.72,WSW,245,0.0,0.0,100,0.01,,,0.20,,2013-09-13 05:13:00,
2013-09-13 01:22:00,70.0,70.0,29.72,WSW,245,0.0,0.0,100,0.01,,,0.20,,2013-09-13 05:22:00,
2013-09-13 01:53:00,71.0,71.0,29.72,West,260,0.0,0.0,100,0.00,,,0.20,,2013-09-13 05:53:00,
2013-09-13 02:12:00,71.0,71.0,29.72,West,260,0.0,1.0,100,0.00,,,0.20,,2013-09-13 06:12:00,
2013-09-13 02:22:00,70.0,70.0,29.69,West,260,0.0,1.0,100,0.00,,,0.20,,2013-09-13 06:22:00,
2013-09-13 02:52:00,70.0,70.0,29.69,WNW,285,0.0,1.0,100,0.00,,,0.20,,2013-09-13 06:52:00,
2013-09-13 03:22:00,70.0,70.0,29.69,West,270,0.0,0.0,100,0.00,,,0.20,,2013-09-13 07:22:00,
2013-09-13 03:52:00,70.0,70.0,29.69,WSW,250,0.0,0.0,100,0.00,,,0.20,,2013-09-13 07:52:00,
2013-09-13 04:11:00,70.0,70.0,29.69,West,265,0.0,0.0,100,0.00,,,0.20,,2013-09-13 08:11:00,
2013-09-13 04:22:00,70.0,70.0,29.66,West,265,0.0,0.0,100,0.00,,,0.20,,2013-09-13 08:22:00,
2013-09-13 04:52:00,71.0,71.0,29.66,SW,220,0.0,1.0,100,0.00,,,0.20,,2013-09-13 08:52:00,
2013-09-13 05:12:00,71.0,71.0,29.66,West,265,0.0,1.0,100,0.00,,,0.20,,2013-09-13 09:12:00,
2013-09-13 05:21:00,71.0,71.0,29.66,West,260,0.0,2.0,100,0.00,,,0.20,,2013-09-13 09:21:00,
2013-09-13 05:54:00,71.0,71.0,29.66,WNW,290,3.0,7.0,100,0.00,,,0.20,,2013-09-13 09:54:00,
2013-09-13 06:23:00,71.0,71.0,29.66,NW,315,3.0,6.0,100,0.00,,,0.20,,2013-09-13 10:23:00,
2013-09-13 06:53:00,71.0,71.0,29.69,NW,325,3.0,5.0,100,0.00,,,0.20,,2013-09-13 10:53:00,
2013-09-13 07:12:00,71.0,71.0,29.69,NNW,335,3.0,5.0,100,0.00,,,0.20,,2013-09-13 11:12:00,
2013-09-13 07:22:00,71.0,71.0,29.69,NNW,345,2.0,3.0,100,0.00,,,0.20,,2013-09-13 11:22:00,
2013-09-13 07:52:00,71.0,71.0,29.69,WNW,285,2.0,3.0,100,0.00,,,0.20,,2013-09-13 11:52:00,
2013-09-13 08:12:00,71.0,71.0,29.69,WNW,295,2.0,5.0,100,0.00,,,0.20,,2013-09-13 12:12:00,
2013-09-13 08:22:00,71.0,69.0,29.69,WNW,300,3.0,6.0,95,0.00,,,0.20,,2013-09-13 12:22:00,
2013-09-13 08:52:00,72.0,67.0,29.69,NW,315,5.0,5.0,83,0.00,,,0.20,,2013-09-13 12:52:00,
2013-09-13 09:11:00,73.0,67.0,29.69,NW,320,5.0,6.0,82,0.00,,,0.20,,2013-09-13 13:11:00,
2013-09-13 09:22:00,72.0,65.0,29.69,NW,315,5.0,8.0,78,0.00,,,0.20,,2013-09-13 13:22:00,
2013-09-13 09:52:00,73.0,65.0,29.72,NNW,345,5.0,6.0,75,0.00,,,0.20,,2013-09-13 13:52:00,
2013-09-13 10:22:00,74.0,65.0,29.72,NW,320,5.0,6.0,73,0.00,,,0.20,,2013-09-13 14:22:00,
2013-09-13 10:52:00,75.0,65.0,29.72,NW,305,5.0,8.0,70,0.00,,,0.20,,2013-09-13 14:52:00,
2013-09-13 11:22:00,75.0,64.0,29.72,North,350,6.0,8.0,69,0.00,,,0.20,,2013-09-13 15:22:00,
2013-09-13 11:53:00,75.0,64.0,29.72,NW,310,6.0,7.0,69,0.00,,,0.20,,2013-09-13 15:53:00,
2013-09-13 12:24:00,76.0,63.0,29.72,WNW,300,7.0,13.0,64,0.00,,,0.20,,2013-09-13 16:24:00,
2013-09-13 12:54:00,76.0,61.0,29.72,NW,310,7.0,8.0,60,0.00,,,0.20,,2013-09-13 16:54:00,
2013-09-13 13:24:00,77.0,59.0,29.75,NW,315,7.0,9.0,53,0.00,,,0.20,,2013-09-13 17:24:00,
2013-09-13 13:53:00,76.0,58.0,29.72,WNW,285,7.0,9.0,53,0.00,,,0.20,,2013-09-13 17:53:00,
2013-09-13 14:22:00,76.0,58.0,29.72,NNW,340,7.0,9.0,54,0.00,,,0.20,,2013-09-13 18:22:00,
2013-09-13 14:52:00,76.0,56.0,29.72,NNW,340,6.0,8.0,50,0.00,,,0.20,,2013-09-13 18:52:00,
2013-09-13 15:11:00,76.0,57.0,29.72,NW,325,7.0,8.0,51,0.00,,,0.20,,2013-09-13 19:11:00,
2013-09-13 15:22:00,76.0,58.0,29.72,NW,305,6.0,8.0,53,0.00,,,0.20,,2013-09-13 19:22:00,
2013-09-13 15:52:00,77.0,56.0,29.72,WNW,295,5.0,9.0,48,0.00,,,0.20,,2013-09-13 19:52:00,
2013-09-13 16:22:00,78.0,56.0,29.72,West,270,7.0,9.0,47,0.00,,,0.20,,2013-09-13 20:22:00,
2013-09-13 16:52:00,78.0,57.0,29.72,West,265,7.0,10.0,48,0.00,,,0.20,,2013-09-13 20:52:00,
2013-09-13 17:22:00,77.0,55.0,29.72,NW,315,6.0,9.0,47,0.00,,,0.20,,2013-09-13 21:22:00,
2013-09-13 17:54:00,77.0,55.0,29.72,NW,310,6.0,8.0,47,0.00,,,0.20,,2013-09-13 21:54:00,
2013-09-13 18:13:00,76.0,54.0,29.72,WNW,285,6.0,8.0,47,0.00,,,0.20,,2013-09-13 22:13:00,
2013-09-13 18:24:00,75.0,55.0,29.75,West,280,7.0,8.0,49,0.00,,,0.20,,2013-09-13 22:24:00,
2013-09-13 18:53:00,73.0,52.0,29.75,NW,320,6.0,7.0,48,0.00,,,0.20,,2013-09-13 22:53:00,
2013-09-13 19:22:00,72.0,52.0,29.75,NW,315,6.0,7.0,49,0.00,,,0.20,,2013-09-13 23:22:00,
2013-09-13 19:53:00,71.0,52.0,29.78,NW,315,3.0,6.0,52,0.00,,,0.20,,2013-09-13 23:53:00,
2013-09-13 20:12:00,71.0,52.0,29.78,NW,325,2.0,6.0,52,0.00,,,0.20,,2013-09-14 00:12:00,
2013-09-13 20:22:00,71.0,52.0,29.81,NW,325,2.0,7.0,51,0.00,,,0.20,,2013-09-14 00:22:00,
2013-09-13 20:53:00,71.0,54.0,29.81,NW,320,3.0,7.0,54,0.00,,,0.20,,2013-09-14 00:53:00,
2013-09-13 21:12:00,70.0,53.0,29.81,NW,325,3.0,3.0,54,0.00,,,0.20,,2013-09-14 01:12:00,
2013-09-13 21:22:00,69.0,53.0,29.84,NE,50,1.0,3.0,56,0.00,,,0.20,,2013-09-14 01:22:00,
2013-09-13 21:42:00,69.0,54.0,29.84,North,5,0.0,0.0,58,0.00,,,0.20,,2013-09-14 01:42:00,
2013-09-13 21:52:00,67.0,52.0,29.84,WSW,250,0.0,0.0,59,0.00,,,0.13,,2013-09-14 01:52:00,
2013-09-13 22:12:00,67.0,53.0,29.84,WSW,250,0.0,0.0,60,0.00,,,0.11,,2013-09-14 02:12:00,
2013-09-13 22:22:00,65.0,52.0,29.84,NE,45,0.0,0.0,63,0.00,,,0.09,,2013-09-14 02:22:00,
2013-09-13 22:42:00,65.0,53.0,29.84,North,5,0.0,0.0,64,0.00,,,0.07,,2013-09-14 02:42:00,
2013-09-13 22:52:00,65.0,52.0,29.84,North,5,0.0,0.0,63,0.00,,,0.04,,2013-09-14 02:52:00,
2013-09-13 23:22:00,66.0,52.0,29.87,North,350,0.0,2.0,60,0.00,,,0.01,,2013-09-14 03:22:00,
2013-09-13 23:55:00,66.0,52.0,29.87,North,350,1.0,5.0,60,0.00,,,0.01,,2013-09-14 03:55:00,